createdAt,value
2023-04-25T03:01:32.680Z,60.29
2023-04-25T03:04:02.159Z,60.32
2023-04-25T03:06:32.314Z,60.45
2023-04-25T03:09:01.314Z,60.40
2023-04-25T03:11:29.623Z,60.30
2023-04-25T03:13:58.802Z,60.43
2023-04-25T03:16:27.835Z,60.55
2023-04-25T03:18:57.116Z,60.50
2023-04-25T03:21:26.543Z,60.68
2023-04-25T03:23:55.559Z,60.56
2023-04-25T03:26:24.666Z,60.57
2023-04-25T03:28:53.713Z,60.66
2023-04-25T03:31:23.682Z,60.65
2023-04-25T03:33:52.820Z,60.59
2023-04-25T03:36:23.073Z,60.72
2023-04-25T03:38:52.085Z,60.69
2023-04-25T03:41:21.757Z,60.87
2023-04-25T03:43:57.051Z,60.94
2023-04-25T03:46:26.225Z,60.83
2023-04-25T03:48:55.557Z,60.73
2023-04-25T03:51:29.241Z,61.01
2023-04-25T03:53:58.401Z,60.91
2023-04-25T03:56:34.053Z,60.67
2023-04-25T03:59:11.255Z,60.96
2023-04-25T04:01:40.467Z,60.96
2023-04-25T04:04:09.464Z,61.10
2023-04-25T04:06:39.308Z,61.14
2023-04-25T04:09:17.141Z,60.95
2023-04-25T04:11:47.036Z,60.96
2023-04-25T04:14:15.738Z,61.03
2023-04-25T04:16:47.463Z,60.97
2023-04-25T04:19:16.489Z,61.18
2023-04-25T04:21:51.723Z,61.07
2023-04-25T04:24:20.897Z,61.02
2023-04-25T04:27:05.148Z,60.92
2023-04-25T04:29:54.546Z,61.06
2023-04-25T04:32:34.922Z,61.12
2023-04-25T04:35:04.981Z,60.91
2023-04-25T04:37:36.339Z,60.85
2023-04-25T04:40:08.928Z,60.96
2023-04-25T04:43:13.050Z,60.89
2023-04-25T04:46:05.629Z,60.88
2023-04-25T04:49:04.527Z,61.09
2023-04-25T04:52:09.082Z,60.88
2023-04-25T04:54:48.149Z,61.06
2023-04-25T04:57:23.578Z,61.09
2023-04-25T05:00:13.520Z,61.23
2023-04-25T05:03:20.736Z,61.14
2023-04-25T05:06:04.517Z,61.02
2023-04-25T05:08:47.349Z,61.11
2023-04-25T05:11:49.177Z,61.15
2023-04-25T05:14:40.607Z,61.16
2023-04-25T05:17:30.162Z,60.89
2023-04-25T05:19:59.289Z,60.97
2023-04-25T05:22:42.918Z,61.08
2023-04-25T05:25:37.056Z,60.96
2023-04-25T05:28:16.175Z,60.93
2023-04-25T05:31:12.278Z,61.09
2023-04-25T05:33:50.405Z,61.38
2023-04-25T05:36:21.310Z,61.33
2023-04-25T05:38:50.936Z,61.38
2023-04-25T05:41:23.055Z,61.39
2023-04-25T05:44:00.901Z,61.28
2023-04-25T05:46:42.651Z,61.25
2023-04-25T05:49:27.613Z,61.19
2023-04-25T05:51:56.526Z,61.28
2023-04-25T05:54:45.070Z,61.25
2023-04-25T05:57:22.107Z,61.33
2023-04-25T05:59:51.437Z,61.13
2023-04-25T06:02:21.158Z,61.06
2023-04-25T06:04:54.281Z,61.26
2023-04-25T06:07:25.197Z,61.36
2023-04-25T06:09:55.115Z,61.32
2023-04-25T06:12:23.516Z,61.33
2023-04-25T06:14:55.669Z,61.13
2023-04-25T06:17:24.658Z,61.09
2023-04-25T06:19:53.669Z,61.16
2023-04-25T06:22:22.693Z,61.21
2023-04-25T06:24:51.684Z,61.41
2023-04-25T06:27:20.276Z,61.43
2023-04-25T06:29:49.185Z,61.42
2023-04-25T06:32:19.478Z,61.24
2023-04-25T06:34:49.607Z,61.14
2023-04-25T06:37:19.093Z,61.33
2023-04-25T06:39:48.363Z,61.43
2023-04-25T06:42:17.451Z,61.42
2023-04-25T06:44:54.707Z,61.46
2023-04-25T06:47:24.617Z,61.60
2023-04-25T06:49:54.194Z,61.44
2023-04-25T06:52:23.000Z,61.48
2023-04-25T06:54:55.968Z,61.19
2023-04-25T06:57:35.355Z,60.99
2023-04-25T07:00:20.579Z,61.06
2023-04-25T07:02:49.580Z,60.90
2023-04-25T07:05:19.576Z,61.08
2023-04-25T07:07:48.382Z,60.94
2023-04-25T07:10:17.200Z,61.01
2023-04-25T07:12:45.827Z,60.84
2023-04-25T07:15:15.162Z,60.81
2023-04-25T07:17:45.147Z,61.00
2023-04-25T07:20:13.878Z,60.78
2023-04-25T07:22:42.024Z,60.74
2023-04-25T07:25:12.083Z,60.84
2023-04-25T07:27:42.391Z,60.80
2023-04-25T07:30:17.767Z,60.77
2023-04-25T07:32:46.763Z,60.70
2023-04-25T07:35:15.350Z,60.89
2023-04-25T07:37:43.964Z,60.97
2023-04-25T07:40:19.934Z,60.90
2023-04-25T07:42:52.729Z,60.64
2023-04-25T07:45:51.262Z,60.77
2023-04-25T07:48:21.382Z,60.74
2023-04-25T07:50:51.083Z,60.37
2023-04-25T07:53:19.753Z,60.37
2023-04-25T07:55:53.907Z,60.46
2023-04-25T07:58:23.482Z,60.53
2023-04-25T08:00:56.027Z,60.39
2023-04-25T08:03:37.047Z,60.25
2023-04-25T08:06:09.005Z,60.22
2023-04-25T08:08:45.975Z,60.30
2023-04-25T08:11:17.624Z,60.20
2023-04-25T08:13:46.001Z,60.20
2023-04-25T08:16:15.451Z,60.14
2023-04-25T08:18:44.661Z,59.91
2023-04-25T08:21:13.667Z,60.15
2023-04-25T08:23:43.502Z,59.98
2023-04-25T08:26:24.178Z,59.76
2023-04-25T08:28:53.980Z,59.92
2023-04-25T08:31:23.132Z,59.86
2023-04-25T08:33:58.499Z,59.56
2023-04-25T08:36:39.697Z,59.72
2023-04-25T08:39:36.471Z,59.76
2023-04-25T08:42:17.548Z,59.87
2023-04-25T08:44:47.680Z,59.77
2023-04-25T08:47:16.306Z,59.89
2023-04-25T08:49:51.255Z,59.98
2023-04-25T08:52:23.013Z,60.05
2023-04-25T08:54:52.465Z,59.91
2023-04-25T08:57:22.506Z,59.72
2023-04-25T08:59:51.889Z,59.69
2023-04-25T09:02:22.408Z,59.61
2023-04-25T09:04:53.557Z,59.50
2023-04-25T09:07:22.978Z,59.74
2023-04-25T09:09:53.071Z,59.71
2023-04-25T09:12:24.161Z,59.39
2023-04-25T09:15:08.079Z,59.39
2023-04-25T09:18:00.663Z,59.20
2023-04-25T09:20:59.726Z,59.13
2023-04-25T09:23:30.893Z,59.16
2023-04-25T09:26:00.292Z,59.08
2023-04-25T09:28:31.070Z,59.19
2023-04-25T09:31:01.136Z,58.77
2023-04-25T09:33:43.026Z,58.65
2023-04-25T09:36:15.710Z,58.88
2023-04-25T09:38:53.494Z,58.72
2023-04-25T09:41:38.513Z,58.33
2023-04-25T09:44:06.985Z,58.48
2023-04-25T09:46:39.886Z,58.28
2023-04-25T09:49:12.409Z,58.04
2023-04-25T09:52:04.932Z,57.74
2023-04-25T09:54:38.608Z,57.60
2023-04-25T09:57:21.749Z,57.96
2023-04-25T09:59:55.288Z,57.69
2023-04-25T10:02:29.194Z,57.57
2023-04-25T10:05:05.182Z,57.73
2023-04-25T10:07:43.273Z,57.93
2023-04-25T10:10:15.996Z,57.77
2023-04-25T10:12:46.293Z,57.56
2023-04-25T10:15:16.382Z,57.39
2023-04-25T10:17:45.554Z,57.20
2023-04-25T10:20:15.703Z,57.15
2023-04-25T10:22:46.834Z,57.19
2023-04-25T10:25:15.854Z,57.04
2023-04-25T10:27:44.617Z,57.16
2023-04-25T10:30:17.088Z,57.16
2023-04-25T10:32:46.747Z,56.88
2023-04-25T10:35:17.129Z,57.02
2023-04-25T10:38:05.976Z,57.00
2023-04-25T10:40:34.991Z,57.00
2023-04-25T10:43:22.433Z,56.81
2023-04-25T10:45:55.044Z,56.92
2023-04-25T10:48:27.216Z,56.78
2023-04-25T10:51:08.408Z,56.90
2023-04-25T10:53:37.699Z,57.24
2023-04-25T10:56:14.547Z,57.23
2023-04-25T10:58:44.873Z,57.08
2023-04-25T11:01:15.062Z,57.05
2023-04-25T11:03:45.037Z,57.07
2023-04-25T11:06:33.465Z,56.99
2023-04-25T11:09:06.245Z,56.80
2023-04-25T11:11:38.202Z,56.18
2023-04-25T11:14:07.574Z,55.98
2023-04-25T11:16:37.981Z,56.13
2023-04-25T11:19:07.230Z,56.24
2023-04-25T11:21:35.601Z,56.16
2023-04-25T11:24:04.925Z,56.22
2023-04-25T11:26:34.064Z,56.17
2023-04-25T11:29:03.409Z,55.97
2023-04-25T11:31:32.508Z,55.85
2023-04-25T11:34:01.325Z,55.86
2023-04-25T11:36:30.709Z,55.43
2023-04-25T11:38:59.721Z,55.73
2023-04-25T11:41:28.732Z,55.63
2023-04-25T11:43:56.980Z,55.54
2023-04-25T11:46:25.969Z,55.59
2023-04-25T11:48:57.248Z,55.37
2023-04-25T11:51:26.901Z,54.84
2023-04-25T11:53:56.075Z,54.88
2023-04-25T11:56:25.307Z,54.89
2023-04-25T11:59:21.052Z,55.02
2023-04-25T12:01:51.180Z,54.83
2023-04-25T12:04:24.997Z,54.82
2023-04-25T12:06:55.808Z,54.81
2023-04-25T12:09:34.485Z,54.74
2023-04-25T12:12:04.753Z,54.76
2023-04-25T12:14:35.089Z,54.76
2023-04-25T12:17:05.404Z,54.80
2023-04-25T12:19:35.545Z,54.55
2023-04-25T12:22:05.007Z,54.71
2023-04-25T12:24:38.383Z,54.82
2023-04-25T12:27:09.643Z,54.73
2023-04-25T12:29:49.150Z,54.52
2023-04-25T12:32:19.527Z,54.67
2023-04-25T12:34:48.862Z,54.70
2023-04-25T12:37:17.913Z,54.74
2023-04-25T12:39:47.888Z,54.72
2023-04-25T12:42:16.880Z,54.58
2023-04-25T12:44:46.698Z,54.59
2023-04-25T12:47:16.095Z,54.84
2023-04-25T12:49:45.106Z,54.79
2023-04-25T12:52:14.354Z,54.84
2023-04-25T12:54:43.724Z,54.74
2023-04-25T12:57:13.171Z,54.28
2023-04-25T12:59:42.427Z,54.05
2023-04-25T13:02:12.544Z,54.22
2023-04-25T13:04:41.119Z,54.04
2023-04-25T13:07:09.310Z,54.04
2023-04-25T13:09:37.897Z,54.14
2023-04-25T13:12:06.729Z,53.98
2023-04-25T13:14:35.654Z,53.90
2023-04-25T13:17:05.020Z,53.96
2023-04-25T13:19:34.248Z,54.04
2023-04-25T13:22:05.710Z,53.95
2023-04-25T13:24:35.642Z,53.88
2023-04-25T13:27:05.092Z,53.71
2023-04-25T13:29:36.900Z,53.83
2023-04-25T13:32:06.370Z,53.67
2023-04-25T13:34:35.658Z,53.67
2023-04-25T13:37:04.974Z,53.56
2023-04-25T13:39:34.325Z,53.59
2023-04-25T13:42:03.268Z,53.56
2023-04-25T13:44:32.131Z,53.59
2023-04-25T13:47:02.258Z,53.66
2023-04-25T13:49:31.451Z,53.26
2023-04-25T13:52:00.157Z,53.14
2023-04-25T13:54:29.117Z,53.32
2023-04-25T13:57:00.454Z,53.42
2023-04-25T13:59:28.811Z,53.38
2023-04-25T14:01:57.831Z,53.64
2023-04-25T14:04:27.750Z,53.48
2023-04-25T14:06:56.701Z,53.43
2023-04-25T14:09:27.314Z,53.48
2023-04-25T14:11:56.393Z,53.29
2023-04-25T14:14:24.996Z,53.31
2023-04-25T14:16:55.699Z,53.37
2023-04-25T14:19:25.480Z,53.41
2023-04-25T14:21:54.715Z,53.47
2023-04-25T14:24:23.052Z,53.48
2023-04-25T14:26:51.275Z,53.32
2023-04-25T14:29:19.509Z,53.31
2023-04-25T14:31:48.990Z,53.30
2023-04-25T14:34:19.516Z,53.22
2023-04-25T14:36:48.105Z,53.06
2023-04-25T14:39:17.884Z,53.39
2023-04-25T14:41:47.153Z,53.40
2023-04-25T14:44:17.052Z,53.18
2023-04-25T14:46:46.119Z,53.28
2023-04-25T14:49:17.705Z,53.32
2023-04-25T14:51:46.844Z,53.18
2023-04-25T14:54:18.174Z,53.26
2023-04-25T14:56:48.119Z,53.22
2023-04-25T14:59:17.102Z,53.27
2023-04-25T15:01:45.970Z,53.16
2023-04-25T15:04:16.003Z,53.12
2023-04-25T15:06:44.870Z,53.26
2023-04-25T15:09:13.157Z,53.63
2023-04-25T15:11:42.208Z,53.58
2023-04-25T15:14:11.481Z,53.49
2023-04-25T15:16:40.590Z,53.64
2023-04-25T15:19:09.317Z,53.68
2023-04-25T15:21:37.840Z,53.67
2023-04-25T15:24:06.424Z,53.82
2023-04-25T15:26:34.597Z,53.79
2023-04-25T15:29:05.583Z,53.89
2023-04-25T15:31:35.028Z,53.94
2023-04-25T15:34:03.555Z,53.89
2023-04-25T15:36:32.637Z,53.84
2023-04-25T15:39:00.954Z,53.78
2023-04-25T15:41:29.676Z,53.78
2023-04-25T15:44:00.074Z,53.46
2023-04-25T15:46:29.058Z,53.55
2023-04-25T15:48:57.553Z,53.44
2023-04-25T15:51:25.734Z,53.53
2023-04-25T15:53:54.510Z,53.56
2023-04-25T15:56:24.300Z,53.38
2023-04-25T15:58:52.646Z,53.22
2023-04-25T16:01:24.602Z,53.29
2023-04-25T16:03:53.527Z,53.29
2023-04-25T16:06:23.127Z,53.27
2023-04-25T16:08:52.311Z,53.55
2023-04-25T16:11:20.914Z,53.32
2023-04-25T16:13:50.060Z,53.26
2023-04-25T16:16:19.119Z,53.31
2023-04-25T16:18:47.820Z,53.04
2023-04-25T16:21:17.435Z,53.03
2023-04-25T16:23:46.514Z,53.16
2023-04-25T16:26:15.140Z,53.31
2023-04-25T16:28:43.892Z,53.17
2023-04-25T16:31:14.977Z,53.27
2023-04-25T16:33:43.714Z,53.33
2023-04-25T16:36:14.562Z,53.35
2023-04-25T16:38:43.499Z,53.43
2023-04-25T16:41:13.661Z,53.54
2023-04-25T16:43:42.879Z,53.53
2023-04-25T16:46:12.246Z,53.48
2023-04-25T16:48:40.856Z,53.49
2023-04-25T16:51:09.264Z,53.47
2023-04-25T16:53:39.069Z,53.60
2023-04-25T16:56:08.255Z,53.63
2023-04-25T16:58:37.355Z,53.66
2023-04-25T17:01:07.469Z,53.69
2023-04-25T17:03:39.008Z,53.67
2023-04-25T17:06:07.761Z,53.69
2023-04-25T17:08:36.528Z,53.80
2023-04-25T17:11:06.228Z,53.78
2023-04-25T17:13:34.887Z,54.00
2023-04-25T17:16:03.897Z,53.88
2023-04-25T17:18:33.046Z,53.98
2023-04-25T17:21:02.357Z,53.90
2023-04-25T17:23:34.611Z,54.07
2023-04-25T17:26:02.821Z,54.19
2023-04-25T17:28:31.634Z,54.06
2023-04-25T17:31:00.537Z,53.98
2023-04-25T17:33:29.595Z,54.16
2023-04-25T17:35:58.740Z,54.10
2023-04-25T17:38:28.196Z,54.16
2023-04-25T17:40:57.480Z,54.34
2023-04-25T17:43:27.829Z,54.23
2023-04-25T17:45:57.830Z,53.86
2023-04-25T17:48:27.220Z,53.92
2023-04-25T17:50:56.828Z,53.73
2023-04-25T17:53:25.753Z,53.64
2023-04-25T17:55:55.341Z,53.74
2023-04-25T17:58:23.847Z,53.85
2023-04-25T18:00:52.961Z,54.06
2023-04-25T18:03:22.441Z,54.28
2023-04-25T18:05:51.660Z,54.42
2023-04-25T18:08:22.752Z,54.71
2023-04-25T18:10:51.975Z,54.89
2023-04-25T18:13:20.858Z,54.88
2023-04-25T18:15:49.940Z,54.95
2023-04-25T18:18:25.708Z,55.13
2023-04-25T18:20:55.475Z,55.11
2023-04-25T18:23:24.061Z,55.44
2023-04-25T18:25:54.552Z,55.46
2023-04-25T18:28:23.736Z,55.59
2023-04-25T18:30:52.208Z,55.57
2023-04-25T18:33:22.975Z,55.71
2023-04-25T18:38:35.394Z,55.86
2023-04-25T18:41:18.338Z,55.77
2023-04-25T18:43:54.687Z,55.93
2023-04-25T18:46:23.667Z,55.82
2023-04-25T18:48:55.524Z,55.88
2023-04-25T18:51:24.697Z,55.89
2023-04-25T18:53:53.690Z,55.77
2023-04-25T18:56:24.775Z,55.94
2023-04-25T18:58:54.999Z,55.91
2023-04-25T19:01:24.782Z,55.88
2023-04-25T19:03:57.654Z,56.13
2023-04-25T19:06:29.401Z,56.12
2023-04-25T19:08:58.172Z,56.20
2023-04-25T19:11:26.741Z,56.13
2023-04-25T19:13:58.109Z,56.39
2023-04-25T19:16:28.460Z,56.28
2023-04-25T19:18:57.217Z,56.23
2023-04-25T19:21:25.430Z,56.12
2023-04-25T19:23:54.756Z,56.32
2023-04-25T19:26:25.375Z,56.35
2023-04-25T19:29:14.741Z,56.35
2023-04-25T19:31:44.903Z,56.48
2023-04-25T19:34:14.002Z,56.65
2023-04-25T19:36:42.711Z,56.54
2023-04-25T19:39:11.225Z,56.60
2023-04-25T19:41:39.744Z,56.63
2023-04-25T19:44:09.199Z,57.12
2023-04-25T19:46:37.635Z,56.82
2023-04-25T19:49:09.090Z,56.92
2023-04-25T19:51:37.893Z,56.88
2023-04-25T19:54:06.993Z,56.87
2023-04-25T19:56:35.164Z,56.83
2023-04-25T19:59:03.969Z,57.08
2023-04-25T20:01:32.320Z,57.04
2023-04-25T20:04:00.741Z,56.76
2023-04-25T20:06:29.402Z,57.34
2023-04-25T20:08:59.255Z,57.40
2023-04-25T20:11:29.631Z,57.50
2023-04-25T20:13:58.674Z,57.62
2023-04-25T20:16:27.943Z,57.67
2023-04-25T20:18:57.753Z,57.49
2023-04-25T20:21:27.731Z,57.54
2023-04-25T20:23:57.336Z,57.07
2023-04-25T20:26:26.085Z,57.70
2023-04-25T20:28:54.692Z,57.51
2023-04-25T20:31:24.571Z,57.75
2023-04-25T20:33:53.935Z,57.67
2023-04-25T20:36:22.233Z,57.62
2023-04-25T20:38:51.701Z,57.71
2023-04-25T20:41:21.499Z,58.04
2023-04-25T20:43:50.408Z,57.92
2023-04-25T20:46:19.280Z,58.07
2023-04-25T20:48:48.189Z,57.95
2023-04-25T20:51:17.205Z,57.87
2023-04-25T20:53:45.996Z,58.26
2023-04-25T20:56:14.777Z,57.97
2023-04-25T20:58:44.022Z,58.16
2023-04-25T21:01:12.838Z,58.07
2023-04-25T21:03:42.149Z,58.08
2023-04-25T21:06:11.390Z,58.17
2023-04-25T21:08:40.175Z,58.15
2023-04-25T21:11:10.462Z,58.27
2023-04-25T21:13:40.050Z,58.32
2023-04-25T21:16:09.475Z,58.27
2023-04-25T21:18:38.570Z,58.46
2023-04-25T21:21:07.837Z,58.33
2023-04-25T21:23:37.252Z,58.19
2023-04-25T21:26:06.436Z,58.59
2023-04-25T21:28:35.331Z,58.47
2023-04-25T21:31:04.267Z,58.71
2023-04-25T21:33:32.561Z,58.48
2023-04-25T21:36:01.524Z,58.57
2023-04-25T21:38:30.463Z,58.80
2023-04-25T21:40:59.521Z,58.76
2023-04-25T21:43:29.585Z,58.93
2023-04-25T21:46:21.689Z,58.83
2023-04-25T21:48:47.469Z,58.90
2023-04-25T21:51:17.370Z,58.69
2023-04-25T21:53:47.081Z,58.92
2023-04-25T21:56:16.051Z,58.97
2023-04-25T21:58:45.171Z,59.10
2023-04-25T22:01:14.195Z,58.94
2023-04-25T22:03:43.653Z,58.92
2023-04-25T22:06:12.219Z,58.78
2023-04-25T22:08:41.297Z,58.88
2023-04-25T22:11:09.951Z,58.89
2023-04-25T22:13:38.812Z,59.04
2023-04-25T22:16:07.628Z,59.14
2023-04-25T22:18:36.466Z,59.02
2023-04-25T22:21:05.776Z,59.04
2023-04-25T22:23:35.793Z,59.31
2023-04-25T22:26:04.809Z,59.40
2023-04-25T22:28:34.221Z,59.50
2023-04-25T22:31:02.817Z,59.37
2023-04-25T22:33:33.940Z,59.46
2023-04-25T22:36:02.300Z,59.34
2023-04-25T22:38:31.451Z,59.63
2023-04-25T22:41:00.476Z,59.70
2023-04-25T22:43:29.984Z,59.59
2023-04-25T22:45:59.449Z,59.66
2023-04-25T22:48:28.112Z,59.83
2023-04-25T22:51:04.018Z,59.57
2023-04-25T22:53:34.671Z,59.73
2023-04-25T22:56:03.749Z,59.40
2023-04-25T22:58:33.305Z,59.71
2023-04-25T23:01:02.058Z,59.91
2023-04-25T23:03:32.800Z,59.63
2023-04-25T23:06:01.148Z,59.73
2023-04-25T23:08:29.981Z,59.50
2023-04-25T23:10:59.253Z,59.84
2023-04-25T23:13:28.661Z,59.48
2023-04-25T23:15:57.570Z,59.73
2023-04-25T23:18:26.385Z,59.62
2023-04-25T23:20:55.252Z,59.84
2023-04-25T23:23:24.201Z,60.02
2023-04-25T23:25:53.648Z,60.02
2023-04-25T23:28:22.752Z,59.75
2023-04-25T23:30:51.710Z,59.90
2023-04-25T23:33:20.595Z,59.89
2023-04-25T23:35:49.105Z,59.95
2023-04-25T23:38:17.933Z,59.58
2023-04-25T23:40:47.835Z,59.89
2023-04-25T23:43:17.436Z,59.79
2023-04-25T23:45:50.011Z,60.21
2023-04-25T23:48:18.950Z,59.74
2023-04-25T23:50:47.939Z,60.05
2023-04-25T23:53:17.021Z,60.00
2023-04-25T23:55:45.957Z,60.07
2023-04-25T23:58:14.984Z,59.80
